Fleming, Ohio
Current Conditions -  °F | °C
As of 10:00 PM on Tuesday 21 Oct 2014 (Local Time) from KPKB Reporting Station
Overcast Overcast  
Wind Chill: 44°   Ceiling: 2400
Heat Index: 47°   Visibility: 10mi
Dew Point: 42°   Wind: 7mph
Humidity: 83%   Direction: 310°NW
Pressure: 30.11"   Gusts: NA
Location:  39.39°N, 81.61°W
Report Text: KPKB 220200Z 31006KT 10SM BKN024 OVC029 08/06 A3011 RMK AO2 T00830056
Loading
Personal Weather Stations






























Interactive Weather Map
Tropical Storm Tracking
New forecast layout! Learn more

10-Day Weather Forecast

Advertisements
Track Severe Weather on mobile